createdAt,value
2023-02-15T00:02:39.968Z,40.53
2023-02-15T00:08:49.855Z,37.53
2023-02-15T00:11:51.899Z,40.33
2023-02-15T00:14:55.463Z,37.30
2023-02-15T00:17:58.462Z,67.25
2023-02-15T00:21:05.223Z,39.40
2023-02-15T00:24:10.533Z,46.00
2023-02-15T00:27:12.654Z,35.92
2023-02-15T00:30:15.138Z,40.58
2023-02-15T00:33:17.159Z,44.72
2023-02-15T00:36:19.150Z,42.88
2023-02-15T00:39:24.248Z,50.65
2023-02-15T00:42:26.175Z,41.30
2023-02-15T00:45:28.263Z,39.17
2023-02-15T00:48:30.472Z,48.80
2023-02-15T00:51:33.988Z,48.00
2023-02-15T00:54:36.323Z,44.47
2023-02-15T00:57:39.101Z,54.40
2023-02-15T01:00:43.728Z,47.75
2023-02-15T01:03:46.118Z,42.60
2023-02-15T01:06:48.107Z,46.88
2023-02-15T01:09:50.083Z,44.65
2023-02-15T01:12:53.421Z,41.65
2023-02-15T01:15:58.317Z,42.58
2023-02-15T01:19:01.700Z,41.35
2023-02-15T01:22:03.740Z,42.85
2023-02-15T01:25:06.297Z,38.90
2023-02-15T01:28:08.566Z,42.28
2023-02-15T01:31:14.883Z,43.53
2023-02-15T01:34:16.973Z,42.13
2023-02-15T01:37:19.090Z,41.45
2023-02-15T01:40:21.691Z,58.40
2023-02-15T01:43:41.221Z,40.53
2023-02-15T01:46:50.992Z,43.25
2023-02-15T01:50:01.272Z,44.00
2023-02-15T01:53:11.154Z,43.28
2023-02-15T01:56:20.998Z,50.63
2023-02-15T01:59:25.758Z,42.08
2023-02-15T02:02:28.841Z,43.70
2023-02-15T02:05:31.765Z,42.85
2023-02-15T02:08:33.978Z,40.60
2023-02-15T02:11:41.748Z,41.70
2023-02-15T02:14:44.390Z,45.17
2023-02-15T02:18:13.085Z,38.83
2023-02-15T02:21:33.683Z,41.70
2023-02-15T02:25:11.946Z,35.88
2023-02-15T02:28:32.109Z,44.65
2023-02-15T02:31:47.774Z,39.83
2023-02-15T02:35:06.010Z,36.13
2023-02-15T02:38:33.771Z,34.75
2023-02-15T02:41:55.451Z,37.25
2023-02-15T02:45:20.728Z,38.72
2023-02-15T02:48:27.897Z,36.90
2023-02-15T02:51:30.595Z,36.85
2023-02-15T02:54:36.595Z,34.08
2023-02-15T02:57:51.470Z,36.05
2023-02-15T03:01:02.614Z,36.53
2023-02-15T03:04:17.072Z,35.42
2023-02-15T03:07:23.509Z,28.85
2023-02-15T03:10:26.902Z,26.85
2023-02-15T03:13:29.576Z,27.13
2023-02-15T03:16:32.291Z,32.90
2023-02-15T03:19:37.925Z,28.77
2023-02-15T03:22:47.554Z,33.75
2023-02-15T03:25:53.709Z,30.05
2023-02-15T03:29:01.447Z,23.02
2023-02-15T03:32:08.198Z,25.17
2023-02-15T03:35:10.634Z,24.63
2023-02-15T03:38:18.897Z,23.10
2023-02-15T03:41:23.458Z,24.67
2023-02-15T03:44:31.596Z,26.60
2023-02-15T03:47:40.016Z,27.98
2023-02-15T03:50:42.377Z,22.90
2023-02-15T03:53:47.452Z,21.70
2023-02-15T03:56:50.067Z,28.88
2023-02-15T03:59:52.304Z,24.75
2023-02-15T04:03:08.322Z,23.05
2023-02-15T04:06:10.383Z,25.33
2023-02-15T04:09:13.658Z,29.65
2023-02-15T04:12:16.014Z,26.15
2023-02-15T04:15:18.157Z,22.58
2023-02-15T04:18:20.165Z,26.65
2023-02-15T04:21:23.998Z,23.83
2023-02-15T04:24:25.935Z,23.08
2023-02-15T04:27:28.005Z,24.92
2023-02-15T04:30:30.052Z,21.30
2023-02-15T04:33:32.164Z,25.17
2023-02-15T04:36:34.161Z,26.25
2023-02-15T04:39:36.135Z,33.10
2023-02-15T04:42:38.516Z,24.80
2023-02-15T04:45:40.498Z,25.35
2023-02-15T04:48:42.549Z,23.90
2023-02-15T04:51:44.508Z,22.10
2023-02-15T04:54:46.989Z,28.77
2023-02-15T04:57:49.576Z,28.48
2023-02-15T05:00:51.830Z,24.02
2023-02-15T05:03:53.931Z,23.70
2023-02-15T05:06:56.279Z,27.80
2023-02-15T05:09:58.219Z,27.27
2023-02-15T05:13:00.250Z,23.67
2023-02-15T05:16:02.591Z,25.85
2023-02-15T05:19:05.517Z,26.90
2023-02-15T05:22:07.427Z,27.05
2023-02-15T05:25:10.303Z,29.98
2023-02-15T05:28:12.525Z,32.17
2023-02-15T05:31:18.090Z,25.50
2023-02-15T05:34:20.282Z,23.65
2023-02-15T05:37:22.390Z,24.10
2023-02-15T05:40:24.482Z,29.63
2023-02-15T05:43:27.069Z,28.58
2023-02-15T05:46:29.152Z,30.50
2023-02-15T05:49:31.122Z,27.45
2023-02-15T05:52:35.608Z,25.88
2023-02-15T05:55:43.192Z,33.20
2023-02-15T05:58:45.218Z,28.15
2023-02-15T06:01:47.184Z,28.75
2023-02-15T06:04:49.276Z,46.80
2023-02-15T06:07:51.471Z,30.23
2023-02-15T06:10:53.668Z,30.00
2023-02-15T06:13:55.993Z,28.33
2023-02-15T06:16:58.064Z,27.90
2023-02-15T06:20:00.104Z,27.38
2023-02-15T06:26:15.011Z,27.83
2023-02-15T06:29:17.667Z,29.63
2023-02-15T06:32:19.614Z,28.38
2023-02-15T06:35:21.686Z,27.23
2023-02-15T06:38:24.032Z,30.65
2023-02-15T06:41:26.135Z,26.35
2023-02-15T06:44:28.214Z,32.78
2023-02-15T06:47:30.452Z,39.83
2023-02-15T06:50:32.694Z,39.15
2023-02-15T06:53:34.877Z,34.42
2023-02-15T06:56:36.975Z,31.95
2023-02-15T06:59:39.015Z,35.50
2023-02-15T07:02:41.296Z,37.08
2023-02-15T07:05:43.925Z,33.80
2023-02-15T07:08:45.996Z,32.88
2023-02-15T07:11:48.223Z,39.10
2023-02-15T07:14:50.221Z,41.47
2023-02-15T07:17:52.305Z,36.70
2023-02-15T07:20:56.465Z,59.90
2023-02-15T07:24:01.353Z,39.50
2023-02-15T07:27:03.440Z,34.63
2023-02-15T07:30:07.394Z,32.65
2023-02-15T07:33:09.435Z,35.25
2023-02-15T07:36:11.746Z,37.35
2023-02-15T07:39:13.800Z,35.22
2023-02-15T07:42:18.027Z,36.75
2023-02-15T07:45:20.454Z,33.40
2023-02-15T07:48:24.866Z,41.35
2023-02-15T07:51:26.953Z,34.50
2023-02-15T07:54:29.258Z,43.15
2023-02-15T07:57:31.277Z,34.00
2023-02-15T08:00:33.300Z,37.22
2023-02-15T08:03:35.337Z,37.05
2023-02-15T08:06:38.161Z,31.95
2023-02-15T08:09:40.182Z,32.10
2023-02-15T08:12:42.417Z,36.58
2023-02-15T08:15:53.132Z,32.53
2023-02-15T08:18:56.235Z,33.47
2023-02-15T08:25:01.907Z,32.38
2023-02-15T08:28:03.973Z,33.88
2023-02-15T08:31:10.745Z,33.85
2023-02-15T08:34:16.865Z,33.75
2023-02-15T08:37:18.873Z,34.42
2023-02-15T08:40:20.890Z,34.70
2023-02-15T08:43:22.917Z,33.53
2023-02-15T08:46:28.821Z,34.05
2023-02-15T08:49:30.973Z,34.20
2023-02-15T08:52:33.030Z,33.30
2023-02-15T08:55:35.508Z,29.02
2023-02-15T08:58:38.335Z,31.13
2023-02-15T09:01:40.773Z,32.00
2023-02-15T09:04:42.933Z,34.85
2023-02-15T09:07:44.888Z,32.22
2023-02-15T09:10:46.891Z,30.17
2023-02-15T09:13:49.458Z,34.78
2023-02-15T09:16:53.346Z,36.17
2023-02-15T09:19:55.403Z,34.80
2023-02-15T09:22:59.900Z,31.52
2023-02-15T09:26:10.521Z,31.05
2023-02-15T09:29:14.532Z,32.90
2023-02-15T09:32:16.579Z,38.85
2023-02-15T09:35:18.692Z,35.15
2023-02-15T09:38:20.721Z,34.05
2023-02-15T09:41:37.519Z,35.17
2023-02-15T09:45:10.965Z,36.63
2023-02-15T09:48:30.921Z,32.88
2023-02-15T09:51:44.901Z,34.10
2023-02-15T09:55:01.970Z,34.15
2023-02-15T09:58:18.946Z,32.58
2023-02-15T10:01:24.158Z,39.63
2023-02-15T10:04:54.964Z,35.13
2023-02-15T10:08:35.849Z,35.47
2023-02-15T10:12:08.055Z,36.20
2023-02-15T10:15:29.366Z,37.65
2023-02-15T10:18:53.144Z,35.72
2023-02-15T10:21:55.514Z,33.72
2023-02-15T10:25:16.053Z,32.83
2023-02-15T10:28:20.697Z,31.08
2023-02-15T10:31:28.135Z,34.28
2023-02-15T10:34:45.130Z,34.53
2023-02-15T10:38:19.105Z,34.40
2023-02-15T10:41:48.841Z,33.75
2023-02-15T10:45:05.735Z,38.42
2023-02-15T10:48:28.901Z,34.97
2023-02-15T10:51:52.665Z,31.52
2023-02-15T10:55:17.248Z,33.28
2023-02-15T10:58:25.373Z,39.03
2023-02-15T11:01:38.064Z,34.03
2023-02-15T11:05:12.277Z,33.13
2023-02-15T11:08:14.562Z,32.13
2023-02-15T11:11:35.655Z,33.13
2023-02-15T11:14:56.866Z,35.58
2023-02-15T11:21:30.650Z,34.28
2023-02-15T11:24:38.161Z,34.13
2023-02-15T11:27:43.219Z,33.92
2023-02-15T11:30:50.869Z,33.38
2023-02-15T11:33:58.607Z,34.63
2023-02-15T11:37:08.256Z,32.75
2023-02-15T11:40:24.699Z,31.05
2023-02-15T11:43:57.115Z,33.83
2023-02-15T11:46:59.466Z,33.40
2023-02-15T11:50:02.281Z,33.55
2023-02-15T12:03:18.575Z,34.85
2023-02-15T12:06:35.241Z,35.60
2023-02-15T12:09:58.161Z,36.60
2023-02-15T12:13:18.940Z,33.20
2023-02-15T12:16:24.307Z,33.33
2023-02-15T12:19:41.046Z,33.30
2023-02-15T12:23:07.319Z,33.63
2023-02-15T12:26:09.703Z,37.28
2023-02-15T12:29:18.600Z,37.88
2023-02-15T12:32:25.406Z,36.00
2023-02-15T12:35:32.751Z,29.83
2023-02-15T12:38:34.658Z,30.35
2023-02-15T12:41:38.869Z,30.55
2023-02-15T12:45:01.014Z,29.10
2023-02-15T12:48:10.848Z,30.85
2023-02-15T12:51:16.374Z,34.22
2023-02-15T12:54:25.771Z,33.42
2023-02-15T12:57:31.978Z,35.17
2023-02-15T13:00:34.070Z,29.35
2023-02-15T13:03:38.929Z,36.15
2023-02-15T13:06:49.204Z,34.03
2023-02-15T13:09:51.577Z,29.17
2023-02-15T13:12:53.908Z,36.20
2023-02-15T13:16:12.450Z,34.60
2023-02-15T13:19:18.561Z,30.83
2023-02-15T13:22:32.253Z,34.75
2023-02-15T13:25:48.235Z,31.45
2023-02-15T13:28:55.267Z,31.67
2023-02-15T13:32:03.669Z,30.13
2023-02-15T13:35:06.844Z,29.33
2023-02-15T13:42:00.468Z,27.83
2023-02-15T13:45:28.020Z,30.48
2023-02-15T13:48:50.568Z,31.33
2023-02-15T13:52:02.585Z,31.65
2023-02-15T13:55:23.379Z,31.45
2023-02-15T13:58:56.647Z,32.92
2023-02-15T14:05:31.107Z,30.98
2023-02-15T14:09:19.174Z,32.45
2023-02-15T14:12:26.804Z,27.88
2023-02-15T14:15:49.855Z,31.15
2023-02-15T14:19:19.263Z,30.63
2023-02-15T14:22:27.352Z,31.25
2023-02-15T14:25:46.721Z,31.67
2023-02-15T14:29:01.864Z,29.67
2023-02-15T14:35:17.510Z,30.63
2023-02-15T14:38:51.339Z,32.35
2023-02-15T14:41:59.048Z,32.33
2023-02-15T14:45:17.287Z,32.00
2023-02-15T14:48:39.744Z,31.83
2023-02-15T14:51:41.810Z,33.42
2023-02-15T14:54:43.608Z,27.60
2023-02-15T14:57:59.354Z,33.70
2023-02-15T15:01:09.375Z,31.42
2023-02-15T15:04:24.290Z,30.05
2023-02-15T15:07:29.681Z,33.25
2023-02-15T15:10:46.242Z,36.70
2023-02-15T15:14:00.445Z,28.75
2023-02-15T15:17:04.878Z,26.50
2023-02-15T15:20:11.874Z,27.13
2023-02-15T15:23:16.796Z,29.42
2023-02-15T15:26:45.263Z,31.05
2023-02-15T15:29:47.132Z,28.25
2023-02-15T15:32:55.039Z,26.27
2023-02-15T15:36:21.545Z,27.65
2023-02-15T15:39:43.762Z,23.88
2023-02-15T15:43:23.217Z,23.77
2023-02-15T15:46:54.263Z,25.85
2023-02-15T15:49:58.361Z,22.70
2023-02-15T15:53:02.539Z,22.60
2023-02-15T15:56:11.685Z,24.63
2023-02-15T15:59:25.952Z,24.33
2023-02-15T16:02:28.554Z,28.95
2023-02-15T16:05:40.627Z,24.58
2023-02-15T16:08:44.969Z,20.20
2023-02-15T16:11:49.492Z,22.85
2023-02-15T16:14:58.581Z,20.65
2023-02-15T16:18:01.378Z,24.30
2023-02-15T16:21:03.572Z,29.13
2023-02-15T16:24:22.830Z,23.75
2023-02-15T16:27:36.459Z,22.05
2023-02-15T16:30:45.383Z,22.85
2023-02-15T16:33:47.341Z,22.92
2023-02-15T16:36:49.218Z,22.95
2023-02-15T16:39:51.641Z,25.48
2023-02-15T16:43:01.084Z,25.08
2023-02-15T16:46:11.489Z,27.40
2023-02-15T16:49:20.737Z,33.67
2023-02-15T16:52:27.687Z,31.95
2023-02-15T16:55:38.198Z,32.65
2023-02-15T16:58:50.270Z,29.23
2023-02-15T17:05:09.273Z,28.67
2023-02-15T17:08:30.141Z,34.60
2023-02-15T17:11:43.353Z,30.00
2023-02-15T17:14:45.281Z,29.45
2023-02-15T17:17:47.697Z,32.10
2023-02-15T17:20:53.817Z,30.33
2023-02-15T17:24:00.256Z,32.47
2023-02-15T17:27:07.218Z,26.30
2023-02-15T17:30:25.308Z,26.75
2023-02-15T17:33:38.420Z,26.42
2023-02-15T17:36:58.779Z,29.52
2023-02-15T17:40:06.627Z,26.33
2023-02-15T17:43:08.478Z,27.80
2023-02-15T17:46:15.656Z,33.85
2023-02-15T17:49:25.257Z,32.38
2023-02-15T17:52:30.481Z,27.40
2023-02-15T17:55:32.392Z,31.33
2023-02-15T17:58:34.364Z,29.45
2023-02-15T18:01:41.899Z,26.75
2023-02-15T18:04:43.765Z,28.80
2023-02-15T18:07:45.671Z,24.63
2023-02-15T18:10:47.577Z,25.08
2023-02-15T18:13:49.454Z,27.20
2023-02-15T18:16:51.420Z,27.30
2023-02-15T18:20:01.766Z,27.00
2023-02-15T18:23:06.167Z,25.38
2023-02-15T18:26:20.698Z,23.15
2023-02-15T18:29:22.659Z,27.20
2023-02-15T18:32:35.703Z,23.45
2023-02-15T18:35:41.401Z,23.27
2023-02-15T18:38:45.728Z,26.70
2023-02-15T18:41:47.819Z,26.05
2023-02-15T18:44:53.550Z,24.20
2023-02-15T18:47:55.976Z,25.58
2023-02-15T18:50:58.568Z,22.88
2023-02-15T18:54:01.210Z,27.45
2023-02-15T18:57:09.411Z,26.58
2023-02-15T19:00:19.535Z,26.00
2023-02-15T19:03:21.443Z,32.50
2023-02-15T19:06:23.709Z,33.42
2023-02-15T19:09:25.812Z,29.95
2023-02-15T19:12:31.216Z,31.80
2023-02-15T19:15:33.254Z,30.67
2023-02-15T19:18:41.180Z,32.58
2023-02-15T19:21:43.403Z,29.77
2023-02-15T19:24:48.034Z,28.60
2023-02-15T19:27:50.569Z,28.55
2023-02-15T19:30:52.626Z,31.02
2023-02-15T19:33:54.631Z,27.10
2023-02-15T19:36:57.098Z,30.17
2023-02-15T19:40:00.451Z,26.75
2023-02-15T19:43:03.814Z,30.77
2023-02-15T19:46:06.322Z,29.33
2023-02-15T19:49:10.632Z,28.58
2023-02-15T19:52:18.202Z,27.45
2023-02-15T19:55:33.517Z,26.98
2023-02-15T19:58:36.090Z,28.05
2023-02-15T20:01:41.244Z,26.58
2023-02-15T20:04:43.375Z,28.25
2023-02-15T20:07:48.591Z,29.90
2023-02-15T20:10:51.111Z,31.25
2023-02-15T20:14:12.125Z,29.08
2023-02-15T20:17:14.493Z,30.02
2023-02-15T20:20:25.624Z,26.13
2023-02-15T20:23:31.759Z,26.92
2023-02-15T20:26:34.654Z,30.27
2023-02-15T20:32:39.122Z,33.75
2023-02-15T20:35:46.679Z,36.65
2023-02-15T20:38:49.786Z,38.35
2023-02-15T20:41:51.836Z,36.00
2023-02-15T20:44:53.856Z,41.35
2023-02-15T20:48:02.410Z,36.60
2023-02-15T20:51:09.253Z,42.72
2023-02-15T20:54:16.063Z,45.25
2023-02-15T20:57:18.069Z,40.80
2023-02-15T21:00:26.965Z,49.92
2023-02-15T21:06:31.577Z,65.28
2023-02-15T21:09:34.031Z,65.90
2023-02-15T21:12:36.283Z,50.80
2023-02-15T21:15:39.976Z,46.58
2023-02-15T21:18:48.457Z,52.83
2023-02-15T21:21:53.262Z,71.70
2023-02-15T21:24:55.411Z,51.75
2023-02-15T21:27:57.458Z,61.80
2023-02-15T21:31:00.012Z,52.85
2023-02-15T21:34:02.074Z,61.10
2023-02-15T21:40:14.363Z,44.90
2023-02-15T21:43:20.946Z,38.40
2023-02-15T21:46:23.138Z,46.40
2023-02-15T21:49:25.196Z,49.17
2023-02-15T21:52:27.200Z,32.97
2023-02-15T21:55:31.465Z,42.03
2023-02-15T21:58:36.815Z,73.05
2023-02-15T22:01:45.917Z,30.17
2023-02-15T22:04:47.908Z,34.78
2023-02-15T22:07:50.003Z,31.85
2023-02-15T22:10:56.619Z,40.25
2023-02-15T22:13:58.621Z,34.83
2023-02-15T22:17:00.704Z,37.88
2023-02-15T22:20:02.798Z,29.17
2023-02-15T22:23:07.521Z,44.35
2023-02-15T22:26:23.122Z,30.67
2023-02-15T22:29:25.168Z,49.33
2023-02-15T22:32:27.734Z,36.20
2023-02-15T22:35:32.828Z,40.00
2023-02-15T22:38:34.806Z,50.92
2023-02-15T22:41:36.773Z,38.97
2023-02-15T22:44:43.192Z,36.25
2023-02-15T22:47:47.083Z,38.88
2023-02-15T22:50:49.304Z,33.88
2023-02-15T22:53:51.775Z,34.67
2023-02-15T22:56:54.167Z,30.95
2023-02-15T22:59:57.128Z,31.42
2023-02-15T23:02:59.218Z,36.72
2023-02-15T23:06:01.303Z,34.15
2023-02-15T23:09:03.756Z,32.38
2023-02-15T23:12:25.003Z,31.95
2023-02-15T23:15:27.374Z,36.63
2023-02-15T23:18:39.838Z,31.65
2023-02-15T23:21:43.090Z,35.40
2023-02-15T23:27:52.505Z,35.78
2023-02-15T23:30:55.229Z,31.20
2023-02-15T23:33:59.092Z,57.15
2023-02-15T23:37:01.232Z,32.88
2023-02-15T23:40:03.698Z,39.22
2023-02-15T23:43:07.094Z,35.00
2023-02-15T23:46:20.391Z,31.50
2023-02-15T23:49:23.434Z,35.60
2023-02-15T23:52:25.481Z,35.05
2023-02-15T23:55:36.498Z,38.17
2023-02-15T23:58:41.520Z,33.63
